createdAt,value
2019-04-28T00:00:54.171Z,16.00
2019-04-28T00:01:54.201Z,16.00
2019-04-28T00:02:54.159Z,16.00
2019-04-28T00:03:54.137Z,16.00
2019-04-28T00:04:54.126Z,16.00
2019-04-28T00:05:54.113Z,16.00
2019-04-28T00:06:54.101Z,16.00
2019-04-28T00:07:54.110Z,16.00
2019-04-28T00:08:54.099Z,16.00
2019-04-28T00:09:54.076Z,16.00
2019-04-28T00:10:54.061Z,16.00
2019-04-28T00:11:54.046Z,16.00
2019-04-28T00:12:54.040Z,16.00
2019-04-28T00:13:54.036Z,16.00
2019-04-28T00:14:54.026Z,16.00
2019-04-28T00:15:54.002Z,16.00
2019-04-28T00:16:53.999Z,16.00
2019-04-28T00:17:54.013Z,16.00
2019-04-28T00:19:06.542Z,16.00
2019-04-28T00:19:54.524Z,16.00
2019-04-28T00:20:53.997Z,16.00
2019-04-28T00:21:53.973Z,16.00
2019-04-28T00:22:53.994Z,16.00
2019-04-28T00:23:53.924Z,16.00
2019-04-28T00:24:54.002Z,16.00
2019-04-28T00:25:53.901Z,16.00
2019-04-28T00:26:53.889Z,16.00
2019-04-28T00:27:53.875Z,16.00
2019-04-28T00:28:53.865Z,16.00
2019-04-28T00:29:53.865Z,16.00
2019-04-28T00:30:53.885Z,16.00
2019-04-28T00:31:53.835Z,16.00
2019-04-28T00:32:53.843Z,16.00
2019-04-28T00:33:53.815Z,16.00
2019-04-28T00:34:53.809Z,16.00
2019-04-28T00:35:53.797Z,16.00
2019-04-28T00:36:53.824Z,16.00
2019-04-28T00:37:53.776Z,16.00
2019-04-28T00:38:53.758Z,16.00
2019-04-28T00:39:53.749Z,16.00
2019-04-28T00:40:53.753Z,16.00
2019-04-28T00:41:53.737Z,16.00
2019-04-28T00:42:53.729Z,16.00
2019-04-28T00:43:53.709Z,16.00
2019-04-28T00:44:53.696Z,16.00
2019-04-28T00:45:53.684Z,16.00
2019-04-28T00:46:53.681Z,16.00
2019-04-28T00:47:53.713Z,16.00
2019-04-28T00:48:53.655Z,16.00
2019-04-28T00:50:04.932Z,16.00
2019-04-28T00:50:53.629Z,16.00
2019-04-28T00:51:53.618Z,16.00
2019-04-28T00:52:53.613Z,16.00
2019-04-28T00:53:53.609Z,16.00
2019-04-28T00:54:53.590Z,20.00
2019-04-28T00:55:54.068Z,16.00
2019-04-28T00:56:53.568Z,20.00
2019-04-28T00:57:53.561Z,20.00
2019-04-28T00:58:53.608Z,20.00
2019-04-28T00:59:58.204Z,20.00
2019-04-28T01:00:54.529Z,20.00
2019-04-28T01:01:53.526Z,20.00
2019-04-28T01:02:53.518Z,16.00
2019-04-28T01:03:53.509Z,16.00
2019-04-28T01:04:53.579Z,16.00
2019-04-28T01:05:53.474Z,16.00
2019-04-28T01:06:53.466Z,16.00
2019-04-28T01:07:53.449Z,20.00
2019-04-28T01:08:53.449Z,20.00
2019-04-28T01:09:53.429Z,20.00
2019-04-28T01:10:53.456Z,20.00
2019-04-28T01:11:53.621Z,20.00
2019-04-28T01:12:53.400Z,20.00
2019-04-28T01:13:53.387Z,20.00
2019-04-28T01:14:55.451Z,20.00
2019-04-28T01:15:53.363Z,20.00
2019-04-28T01:16:53.403Z,20.00
2019-04-28T01:17:53.352Z,24.00
2019-04-28T01:18:53.332Z,20.00
2019-04-28T01:19:53.319Z,24.00
2019-04-28T01:21:03.905Z,24.00
2019-04-28T01:21:53.299Z,20.00
2019-04-28T01:22:53.307Z,24.00
2019-04-28T01:23:53.283Z,24.00
2019-04-28T01:24:53.267Z,24.00
2019-04-28T01:25:53.261Z,24.00
2019-04-28T01:26:53.268Z,28.00
2019-04-28T01:27:53.244Z,28.00
2019-04-28T01:28:53.229Z,28.00
2019-04-28T01:30:05.478Z,28.00
2019-04-28T01:30:54.201Z,32.00
2019-04-28T01:31:53.189Z,32.00
2019-04-28T01:32:53.218Z,32.00
2019-04-28T01:33:53.169Z,36.00
2019-04-28T01:34:53.160Z,40.00
2019-04-28T01:35:53.151Z,40.00
2019-04-28T01:36:53.145Z,40.00
2019-04-28T01:37:53.129Z,48.00
2019-04-28T01:38:53.161Z,44.00
2019-04-28T01:39:53.108Z,52.00
2019-04-28T01:40:53.100Z,56.00
2019-04-28T01:41:53.082Z,56.00
2019-04-28T01:42:53.085Z,60.00
2019-04-28T01:43:53.062Z,68.00
2019-04-28T01:44:53.069Z,72.00
2019-04-28T01:45:53.039Z,80.00
2019-04-28T01:46:53.033Z,88.00
2019-04-28T01:47:53.029Z,92.00
2019-04-28T01:48:53.015Z,100.00
2019-04-28T01:49:52.995Z,108.00
2019-04-28T01:50:53.030Z,120.00
2019-04-28T01:52:05.717Z,128.00
2019-04-28T01:52:52.975Z,136.00
2019-04-28T01:53:52.954Z,148.00
2019-04-28T01:54:53.590Z,164.00
2019-04-28T01:55:52.933Z,180.00
2019-04-28T01:56:52.973Z,192.00
2019-04-28T01:57:52.910Z,212.00
2019-04-28T01:58:52.902Z,228.00
2019-04-28T01:59:52.889Z,248.00
2019-04-28T02:00:52.905Z,268.00
2019-04-28T02:01:52.924Z,292.00
2019-04-28T02:02:52.905Z,312.00
2019-04-28T02:03:52.846Z,336.00
2019-04-28T02:04:52.840Z,360.00
2019-04-28T02:05:52.839Z,384.00
2019-04-28T02:06:52.817Z,412.00
2019-04-28T02:07:52.808Z,444.00
2019-04-28T02:08:52.913Z,476.00
2019-04-28T02:09:52.790Z,508.00
2019-04-28T02:10:52.774Z,548.00
2019-04-28T02:11:52.760Z,588.00
2019-04-28T02:12:52.749Z,632.00
2019-04-28T02:13:52.791Z,680.00
2019-04-28T02:14:52.732Z,724.00
2019-04-28T02:15:52.730Z,760.00
2019-04-28T02:16:53.612Z,816.00
2019-04-28T02:18:00.085Z,868.00
2019-04-28T02:18:52.688Z,932.00
2019-04-28T02:19:52.741Z,992.00
2019-04-28T02:20:59.650Z,1056.00
2019-04-28T02:21:52.656Z,1120.00
2019-04-28T02:22:59.938Z,1192.00
2019-04-28T02:23:52.637Z,1268.00
2019-04-28T02:24:52.627Z,1344.00
2019-04-28T02:25:52.654Z,1424.00
2019-04-28T02:26:52.804Z,1508.00
2019-04-28T02:27:52.598Z,1596.00
2019-04-28T02:28:52.584Z,1684.00
2019-04-28T02:29:52.583Z,1776.00
2019-04-28T02:30:53.878Z,1872.00
2019-04-28T02:31:52.591Z,1968.00
2019-04-28T02:32:52.540Z,2068.00
2019-04-28T02:33:53.865Z,2176.00
2019-04-28T02:34:52.516Z,2272.00
2019-04-28T02:35:52.514Z,2376.00
2019-04-28T02:36:53.803Z,2484.00
2019-04-28T02:37:52.520Z,2592.00
2019-04-28T02:38:52.472Z,2700.00
2019-04-28T02:39:52.470Z,2812.00
2019-04-28T02:40:52.464Z,2920.00
2019-04-28T02:41:52.441Z,3032.00
2019-04-28T02:42:52.514Z,3144.00
2019-04-28T02:43:52.455Z,3256.00
2019-04-28T02:44:52.454Z,3376.00
2019-04-28T02:45:53.448Z,3492.00
2019-04-28T02:46:52.388Z,3612.00
2019-04-28T02:47:52.518Z,3720.00
2019-04-28T02:48:54.115Z,3840.00
2019-04-28T02:49:52.407Z,3952.00
2019-04-28T02:50:52.353Z,4064.00
2019-04-28T02:51:52.361Z,4176.00
2019-04-28T02:52:52.330Z,4288.00
2019-04-28T02:54:03.554Z,4400.00
2019-04-28T02:54:52.313Z,4508.00
2019-04-28T02:55:52.335Z,4624.00
2019-04-28T02:56:52.282Z,4740.00
2019-04-28T02:57:52.298Z,4852.00
2019-04-28T02:58:52.260Z,4964.00
2019-04-28T02:59:52.245Z,5080.00
2019-04-28T03:01:02.565Z,5200.00
2019-04-28T03:01:53.264Z,5312.00
2019-04-28T03:02:52.243Z,5428.00
2019-04-28T03:03:52.209Z,5540.00
2019-04-28T03:04:52.209Z,5656.00
2019-04-28T03:05:52.196Z,5772.00
2019-04-28T03:06:52.171Z,5888.00
2019-04-28T03:07:52.168Z,6012.00
2019-04-28T03:08:52.153Z,6132.00
2019-04-28T03:09:52.477Z,6248.00
2019-04-28T03:10:52.133Z,6368.00
2019-04-28T03:11:52.141Z,6492.00
2019-04-28T03:12:52.260Z,6620.00
2019-04-28T03:13:52.110Z,6752.00
2019-04-28T03:14:52.093Z,6876.00
2019-04-28T03:15:52.082Z,7008.00
2019-04-28T03:16:52.101Z,7144.00
2019-04-28T03:17:53.163Z,7260.00
2019-04-28T03:18:52.094Z,7388.00
2019-04-28T03:19:52.046Z,7516.00
2019-04-28T03:21:01.727Z,7636.00
2019-04-28T03:21:52.016Z,7760.00
2019-04-28T03:22:52.004Z,8176.00
2019-04-28T03:23:52.083Z,10952.00
2019-04-28T03:24:52.035Z,14912.00
2019-04-28T03:25:51.979Z,18336.00
2019-04-28T03:26:51.962Z,21600.00
2019-04-28T03:27:51.946Z,23584.00
2019-04-28T03:28:51.938Z,23616.00
2019-04-28T03:29:52.543Z,23584.00
2019-04-28T03:30:53.934Z,24288.00
2019-04-28T03:32:16.442Z,25088.00
2019-04-28T03:32:59.409Z,25504.00
2019-04-28T03:33:55.473Z,25984.00
2019-04-28T03:34:53.686Z,26720.00
2019-04-28T03:35:53.612Z,27168.00
2019-04-28T03:36:52.015Z,27328.00
2019-04-28T03:37:51.838Z,26560.00
2019-04-28T03:38:53.224Z,26688.00
2019-04-28T03:39:51.818Z,27296.00
2019-04-28T03:40:51.816Z,27840.00
2019-04-28T03:41:51.851Z,29344.00
2019-04-28T03:42:51.786Z,29856.00
2019-04-28T03:43:51.772Z,30112.00
2019-04-28T03:44:51.766Z,29856.00
2019-04-28T03:45:51.755Z,29696.00
2019-04-28T03:46:51.747Z,30432.00
2019-04-28T03:47:51.770Z,29568.00
2019-04-28T03:48:51.719Z,29088.00
2019-04-28T03:49:51.711Z,29344.00
2019-04-28T03:50:51.695Z,30112.00
2019-04-28T03:52:03.990Z,31328.00
2019-04-28T03:52:51.675Z,32000.00
2019-04-28T03:53:51.709Z,32992.00
2019-04-28T03:54:51.660Z,33440.00
2019-04-28T03:55:51.644Z,34080.00
2019-04-28T03:56:53.669Z,34944.00
2019-04-28T03:57:51.630Z,35552.00
2019-04-28T03:58:51.633Z,36544.00
2019-04-28T03:59:51.708Z,36768.00
2019-04-28T04:00:51.591Z,36384.00
2019-04-28T04:01:58.574Z,36704.00
2019-04-28T04:02:52.582Z,37056.00
2019-04-28T04:03:51.898Z,37312.00
2019-04-28T04:04:52.472Z,37632.00
2019-04-28T04:05:51.572Z,37760.00
2019-04-28T04:06:51.523Z,37760.00
2019-04-28T04:07:51.526Z,38464.00
2019-04-28T04:08:51.503Z,38912.00
2019-04-28T04:09:51.730Z,39072.00
2019-04-28T04:10:51.482Z,39264.00
2019-04-28T04:11:51.506Z,38944.00
2019-04-28T04:12:51.455Z,38432.00
2019-04-28T04:13:51.562Z,38304.00
2019-04-28T04:14:51.432Z,38688.00
2019-04-28T04:15:54.272Z,38656.00
2019-04-28T04:16:51.426Z,39008.00
2019-04-28T04:17:51.416Z,39360.00
2019-04-28T04:18:53.769Z,38560.00
2019-04-28T04:19:51.383Z,37728.00
2019-04-28T04:20:51.504Z,38272.00
2019-04-28T04:21:52.739Z,38592.00
2019-04-28T04:23:01.826Z,38432.00
2019-04-28T04:23:51.332Z,37888.00
2019-04-28T04:24:52.494Z,38240.00
2019-04-28T04:25:51.410Z,39040.00
2019-04-28T04:26:51.302Z,39488.00
2019-04-28T04:27:51.289Z,39456.00
2019-04-28T04:28:51.827Z,39296.00
2019-04-28T04:29:51.271Z,38912.00
2019-04-28T04:30:51.265Z,39872.00
2019-04-28T04:31:51.395Z,40192.00
2019-04-28T04:32:51.241Z,39488.00
2019-04-28T04:33:51.229Z,39392.00
2019-04-28T04:34:51.236Z,38848.00
2019-04-28T04:35:51.903Z,38240.00
2019-04-28T04:36:51.198Z,38752.00
2019-04-28T04:37:51.177Z,38176.00
2019-04-28T04:38:51.754Z,37792.00
2019-04-28T04:39:51.481Z,37568.00
2019-04-28T04:40:51.506Z,38016.00
2019-04-28T04:41:51.156Z,38592.00
2019-04-28T04:42:51.129Z,37504.00
2019-04-28T04:43:51.540Z,36448.00
2019-04-28T04:44:51.106Z,36000.00
2019-04-28T04:45:51.136Z,36256.00
2019-04-28T04:46:51.177Z,37408.00
2019-04-28T04:47:51.092Z,36672.00
2019-04-28T04:48:51.249Z,35968.00
2019-04-28T04:49:51.062Z,36032.00
2019-04-28T04:50:51.185Z,36224.00
2019-04-28T04:51:51.155Z,34528.00
2019-04-28T04:52:51.013Z,33408.00
2019-04-28T04:54:03.472Z,33920.00
2019-04-28T04:54:51.204Z,33600.00
2019-04-28T04:55:52.657Z,32480.00
2019-04-28T04:56:50.970Z,32736.00
2019-04-28T04:57:51.015Z,31392.00
2019-04-28T04:58:51.005Z,30656.00
2019-04-28T04:59:50.936Z,30496.00
2019-04-28T05:00:51.256Z,27680.00
2019-04-28T05:01:50.914Z,21632.00
2019-04-28T05:02:52.954Z,18112.00
2019-04-28T05:03:50.902Z,17536.00
2019-04-28T05:04:50.880Z,17600.00
2019-04-28T05:05:50.894Z,18080.00
2019-04-28T05:06:50.858Z,18336.00
2019-04-28T05:07:50.868Z,17984.00
2019-04-28T05:08:51.367Z,17536.00
2019-04-28T05:09:50.819Z,17280.00
2019-04-28T05:10:50.818Z,17248.00
2019-04-28T05:11:50.818Z,17312.00
2019-04-28T05:12:51.823Z,17568.00
2019-04-28T05:13:50.776Z,18112.00
2019-04-28T05:14:50.853Z,18912.00
2019-04-28T05:15:52.672Z,19264.00
2019-04-28T05:16:50.743Z,20096.00
2019-04-28T05:17:50.771Z,25600.00
2019-04-28T05:18:50.725Z,32640.00
2019-04-28T05:19:50.747Z,33568.00
2019-04-28T05:20:50.702Z,28256.00
2019-04-28T05:21:50.690Z,25824.00
2019-04-28T05:22:50.678Z,26176.00
2019-04-28T05:23:51.066Z,26496.00
2019-04-28T05:25:01.887Z,25408.00
2019-04-28T05:25:50.646Z,22272.00
2019-04-28T05:26:51.558Z,21824.00
2019-04-28T05:27:54.484Z,20736.00
2019-04-28T05:28:53.393Z,21952.00
2019-04-28T05:29:51.330Z,23168.00
2019-04-28T05:30:50.630Z,20704.00
2019-04-28T05:31:54.444Z,19040.00
2019-04-28T05:32:56.165Z,19232.00
2019-04-28T05:33:51.550Z,19872.00
2019-04-28T05:34:52.826Z,20736.00
2019-04-28T05:35:50.539Z,21696.00
2019-04-28T05:36:50.662Z,20832.00
2019-04-28T05:37:50.513Z,19488.00
2019-04-28T05:38:50.498Z,19648.00
2019-04-28T05:39:52.642Z,19808.00
2019-04-28T05:40:50.477Z,18848.00
2019-04-28T05:41:50.647Z,18656.00
2019-04-28T05:42:50.454Z,20032.00
2019-04-28T05:43:50.542Z,19552.00
2019-04-28T05:44:50.437Z,19008.00
2019-04-28T05:45:50.428Z,18944.00
2019-04-28T05:46:50.847Z,19104.00
2019-04-28T05:47:52.015Z,18688.00
2019-04-28T05:48:51.289Z,18432.00
2019-04-28T05:49:51.454Z,19360.00
2019-04-28T05:50:50.375Z,19520.00
2019-04-28T05:51:50.532Z,19584.00
2019-04-28T05:52:50.343Z,19648.00
2019-04-28T05:53:59.404Z,19072.00
2019-04-28T05:54:50.331Z,19296.00
2019-04-28T05:55:50.310Z,19744.00
2019-04-28T05:56:50.301Z,19488.00
2019-04-28T05:57:53.007Z,19712.00
2019-04-28T05:58:50.492Z,20096.00
2019-04-28T05:59:50.643Z,20352.00
2019-04-28T06:00:50.259Z,19616.00
2019-04-28T06:01:50.667Z,19616.00
2019-04-28T06:02:56.437Z,21280.00
2019-04-28T06:03:51.224Z,23008.00
2019-04-28T06:04:50.211Z,23360.00
2019-04-28T06:05:50.223Z,22368.00
2019-04-28T06:06:50.197Z,24832.00
2019-04-28T06:07:50.179Z,24864.00
2019-04-28T06:08:50.983Z,23968.00
2019-04-28T06:09:50.191Z,26432.00
2019-04-28T06:10:50.146Z,28320.00
2019-04-28T06:11:50.194Z,30656.00
2019-04-28T06:12:50.141Z,33568.00
2019-04-28T06:13:52.445Z,35392.00
2019-04-28T06:14:50.332Z,37632.00
2019-04-28T06:15:50.109Z,32896.00
2019-04-28T06:16:50.693Z,25440.00
2019-04-28T06:17:50.080Z,22464.00
2019-04-28T06:18:50.138Z,20544.00
2019-04-28T06:19:50.534Z,18656.00
2019-04-28T06:20:50.033Z,17984.00
2019-04-28T06:21:50.031Z,17664.00
2019-04-28T06:22:50.044Z,17440.00
2019-04-28T06:23:49.999Z,17312.00
2019-04-28T06:25:01.261Z,16772.00
2019-04-28T06:25:49.980Z,15844.00
2019-04-28T06:26:49.972Z,14836.00
2019-04-28T06:27:50.898Z,13952.00
2019-04-28T06:28:49.968Z,13004.00
2019-04-28T06:29:49.951Z,12440.00
2019-04-28T06:30:49.930Z,12292.00
2019-04-28T06:31:49.917Z,12228.00
2019-04-28T06:32:49.912Z,12176.00
2019-04-28T06:33:49.891Z,12148.00
2019-04-28T06:34:49.970Z,12144.00
2019-04-28T06:35:49.935Z,12140.00
2019-04-28T06:36:49.856Z,12112.00
2019-04-28T06:37:49.858Z,12168.00
2019-04-28T06:38:49.835Z,12340.00
2019-04-28T06:39:49.824Z,12448.00
2019-04-28T06:40:49.848Z,12476.00
2019-04-28T06:41:49.802Z,12372.00
2019-04-28T06:42:49.793Z,12096.00
2019-04-28T06:43:50.398Z,11896.00
2019-04-28T06:44:49.777Z,11828.00
2019-04-28T06:45:50.393Z,11872.00
2019-04-28T06:46:49.751Z,11876.00
2019-04-28T06:47:49.740Z,11728.00
2019-04-28T06:48:49.726Z,11652.00
2019-04-28T06:49:49.716Z,11640.00
2019-04-28T06:50:49.700Z,11648.00
2019-04-28T06:51:49.735Z,11644.00
2019-04-28T06:52:49.768Z,11640.00
2019-04-28T06:53:49.668Z,11608.00
2019-04-28T06:54:49.654Z,11580.00
2019-04-28T06:56:02.384Z,11560.00
2019-04-28T06:56:49.637Z,11532.00
2019-04-28T06:57:49.633Z,11488.00
2019-04-28T06:58:58.830Z,11472.00
2019-04-28T06:59:50.606Z,11424.00
2019-04-28T07:00:49.594Z,11408.00
2019-04-28T07:01:49.579Z,11400.00
2019-04-28T07:02:49.615Z,11380.00
2019-04-28T07:03:49.559Z,11352.00
2019-04-28T07:05:01.148Z,11340.00
2019-04-28T07:05:50.539Z,11328.00
2019-04-28T07:06:49.528Z,11312.00
2019-04-28T07:07:49.519Z,11284.00
2019-04-28T07:08:49.554Z,11280.00
2019-04-28T07:09:49.508Z,11264.00
2019-04-28T07:10:49.480Z,11236.00
2019-04-28T07:11:50.429Z,11232.00
2019-04-28T07:12:49.465Z,11212.00
2019-04-28T07:13:49.457Z,11192.00
2019-04-28T07:14:49.485Z,11188.00
2019-04-28T07:15:49.440Z,11160.00
2019-04-28T07:16:49.416Z,11152.00
2019-04-28T07:17:49.411Z,11112.00
2019-04-28T07:18:49.406Z,11108.00
2019-04-28T07:19:49.383Z,11108.00
2019-04-28T07:20:49.420Z,11108.00
2019-04-28T07:21:49.362Z,11096.00
2019-04-28T07:22:49.358Z,11088.00
2019-04-28T07:23:49.346Z,11072.00
2019-04-28T07:24:49.345Z,11072.00
2019-04-28T07:25:49.326Z,11064.00
2019-04-28T07:27:00.965Z,11056.00
2019-04-28T07:27:49.304Z,11044.00
2019-04-28T07:28:49.292Z,11016.00
2019-04-28T07:29:49.277Z,11004.00
2019-04-28T07:30:49.265Z,11008.00
2019-04-28T07:31:49.254Z,10996.00
2019-04-28T07:32:49.370Z,11020.00
2019-04-28T07:33:49.236Z,11024.00
2019-04-28T07:34:49.234Z,11028.00
2019-04-28T07:35:49.222Z,11032.00
2019-04-28T07:36:49.214Z,11028.00
2019-04-28T07:37:49.254Z,11012.00
2019-04-28T07:38:49.206Z,10996.00
2019-04-28T07:39:49.171Z,10996.00
2019-04-28T07:40:49.172Z,10976.00
2019-04-28T07:41:49.149Z,10960.00
2019-04-28T07:42:49.147Z,10976.00
2019-04-28T07:43:49.171Z,10964.00
2019-04-28T07:44:49.126Z,10956.00
2019-04-28T07:45:49.111Z,10956.00
2019-04-28T07:46:49.096Z,10948.00
2019-04-28T07:47:49.087Z,10948.00
2019-04-28T07:48:49.100Z,10948.00
2019-04-28T07:49:49.087Z,10948.00
2019-04-28T07:50:49.057Z,10952.00
2019-04-28T07:51:49.040Z,10956.00
2019-04-28T07:52:49.047Z,10952.00
2019-04-28T07:53:49.020Z,10948.00
2019-04-28T07:54:49.057Z,10960.00
2019-04-28T07:55:49.032Z,10956.00
2019-04-28T07:56:48.985Z,10952.00
2019-04-28T07:58:01.397Z,10948.00
2019-04-28T07:58:48.964Z,10952.00
2019-04-28T07:59:48.957Z,10960.00
2019-04-28T08:00:49.010Z,10952.00
2019-04-28T08:01:48.937Z,10948.00
2019-04-28T08:02:48.920Z,10964.00
2019-04-28T08:03:50.024Z,10952.00
2019-04-28T08:04:48.900Z,10956.00
2019-04-28T08:05:48.892Z,10944.00
2019-04-28T08:06:48.914Z,10944.00
2019-04-28T08:07:48.867Z,10952.00
2019-04-28T08:08:48.858Z,10944.00
2019-04-28T08:09:48.851Z,10952.00
2019-04-28T08:10:48.833Z,10952.00
2019-04-28T08:11:48.830Z,10944.00
2019-04-28T08:12:49.234Z,10944.00
2019-04-28T08:13:48.805Z,10932.00
2019-04-28T08:14:48.795Z,10940.00
2019-04-28T08:15:48.786Z,10940.00
2019-04-28T08:16:48.769Z,10944.00
2019-04-28T08:17:48.762Z,10936.00
2019-04-28T08:18:48.791Z,10936.00
2019-04-28T08:19:48.742Z,10940.00
2019-04-28T08:20:48.729Z,10928.00
2019-04-28T08:21:48.716Z,10936.00
2019-04-28T08:22:48.708Z,10936.00
2019-04-28T08:23:48.703Z,10924.00
2019-04-28T08:24:48.726Z,10928.00
2019-04-28T08:25:48.678Z,10924.00
2019-04-28T08:26:48.658Z,10940.00
2019-04-28T08:27:48.648Z,10940.00
2019-04-28T08:29:01.141Z,10944.00
2019-04-28T08:29:58.051Z,10944.00
2019-04-28T08:30:49.652Z,10940.00
2019-04-28T08:31:48.614Z,10944.00
2019-04-28T08:32:48.599Z,10952.00
2019-04-28T08:33:48.585Z,10952.00
2019-04-28T08:34:48.576Z,10956.00
2019-04-28T08:35:48.570Z,10952.00
2019-04-28T08:36:48.567Z,10948.00
2019-04-28T08:37:48.546Z,10964.00
2019-04-28T08:38:48.539Z,10972.00
2019-04-28T08:39:48.530Z,10964.00
2019-04-28T08:40:48.730Z,10956.00
2019-04-28T08:41:48.503Z,10944.00
2019-04-28T08:42:48.493Z,10944.00
2019-04-28T08:43:48.473Z,10948.00
2019-04-28T08:44:48.464Z,10944.00
2019-04-28T08:45:48.459Z,10928.00
2019-04-28T08:46:48.491Z,10928.00
2019-04-28T08:47:48.434Z,10928.00
2019-04-28T08:48:48.423Z,10924.00
2019-04-28T08:49:48.410Z,10908.00
2019-04-28T08:50:48.408Z,10912.00
2019-04-28T08:51:48.390Z,10884.00
2019-04-28T08:52:48.426Z,10880.00
2019-04-28T08:53:48.364Z,10884.00
2019-04-28T08:54:48.357Z,10884.00
2019-04-28T08:55:48.345Z,10876.00
2019-04-28T08:56:48.338Z,10872.00
2019-04-28T08:57:48.321Z,10864.00
2019-04-28T08:58:48.319Z,10864.00
2019-04-28T09:00:00.786Z,10860.00
2019-04-28T09:00:48.288Z,10856.00
2019-04-28T09:01:48.276Z,10824.00
2019-04-28T09:02:48.268Z,10840.00
2019-04-28T09:03:48.577Z,10828.00
2019-04-28T09:04:48.246Z,10816.00
2019-04-28T09:05:48.235Z,10812.00
2019-04-28T09:06:48.220Z,10808.00
2019-04-28T09:07:48.212Z,10796.00
2019-04-28T09:08:48.200Z,10788.00
2019-04-28T09:09:48.232Z,10772.00
2019-04-28T09:10:48.177Z,10768.00
2019-04-28T09:11:48.176Z,10756.00
2019-04-28T09:12:48.152Z,10760.00
2019-04-28T09:13:48.145Z,10760.00
2019-04-28T09:14:48.131Z,10748.00
2019-04-28T09:15:48.165Z,10756.00
2019-04-28T09:16:48.107Z,10748.00
2019-04-28T09:17:48.111Z,10744.00
2019-04-28T09:18:48.095Z,10740.00
2019-04-28T09:19:48.080Z,10732.00
2019-04-28T09:20:48.067Z,10732.00
2019-04-28T09:21:48.065Z,10732.00
2019-04-28T09:22:48.043Z,10712.00
2019-04-28T09:23:48.031Z,10712.00
2019-04-28T09:24:48.020Z,10704.00
2019-04-28T09:25:48.007Z,10700.00
2019-04-28T09:26:48.037Z,10692.00
2019-04-28T09:27:47.998Z,10672.00
2019-04-28T09:28:47.985Z,10660.00
2019-04-28T09:29:47.965Z,10660.00
2019-04-28T09:31:00.497Z,10652.00
2019-04-28T09:31:47.950Z,10640.00
2019-04-28T09:32:47.968Z,10632.00
2019-04-28T09:33:47.926Z,10628.00
2019-04-28T09:34:47.920Z,10624.00
2019-04-28T09:35:47.897Z,10608.00
2019-04-28T09:36:47.909Z,10604.00
2019-04-28T09:37:47.890Z,10588.00
2019-04-28T09:38:47.886Z,10584.00
2019-04-28T09:39:47.855Z,10580.00
2019-04-28T09:40:47.846Z,10568.00
2019-04-28T09:41:47.834Z,10560.00
2019-04-28T09:42:47.827Z,10548.00
2019-04-28T09:43:47.812Z,10540.00
2019-04-28T09:44:47.813Z,10528.00
2019-04-28T09:45:47.793Z,10520.00
2019-04-28T09:46:47.782Z,10508.00
2019-04-28T09:47:47.765Z,10500.00
2019-04-28T09:48:47.759Z,10500.00
2019-04-28T09:49:47.786Z,10492.00
2019-04-28T09:50:47.742Z,10484.00
2019-04-28T09:51:47.735Z,10476.00
2019-04-28T09:52:48.849Z,10464.00
2019-04-28T09:53:47.725Z,10448.00
2019-04-28T09:54:47.692Z,10444.00
2019-04-28T09:55:47.709Z,10432.00
2019-04-28T09:56:56.493Z,10428.00
2019-04-28T09:57:48.659Z,10412.00
2019-04-28T09:58:47.652Z,10400.00
2019-04-28T09:59:47.635Z,10384.00
2019-04-28T10:00:47.629Z,10372.00
2019-04-28T10:02:01.082Z,10356.00
2019-04-28T10:02:47.609Z,10356.00
2019-04-28T10:03:47.596Z,10348.00
2019-04-28T10:04:47.596Z,10348.00
2019-04-28T10:05:47.603Z,10336.00
2019-04-28T10:06:47.564Z,10332.00
2019-04-28T10:07:47.548Z,10324.00
2019-04-28T10:08:47.546Z,10316.00
2019-04-28T10:09:47.549Z,10308.00
2019-04-28T10:10:47.518Z,10296.00
2019-04-28T10:11:47.544Z,10284.00
2019-04-28T10:12:47.488Z,10280.00
2019-04-28T10:13:47.492Z,10260.00
2019-04-28T10:14:47.471Z,10244.00
2019-04-28T10:15:47.468Z,10244.00
2019-04-28T10:16:47.442Z,10236.00
2019-04-28T10:17:47.449Z,10232.00
2019-04-28T10:18:47.424Z,10212.00
2019-04-28T10:19:47.421Z,10208.00
2019-04-28T10:20:47.403Z,10192.00
2019-04-28T10:21:47.392Z,10180.00
2019-04-28T10:22:47.378Z,10172.00
2019-04-28T10:23:47.394Z,10164.00
2019-04-28T10:24:47.358Z,10152.00
2019-04-28T10:25:47.348Z,10144.00
2019-04-28T10:26:47.339Z,10132.00
2019-04-28T10:27:47.339Z,10128.00
2019-04-28T10:28:47.351Z,10128.00
2019-04-28T10:29:47.306Z,10116.00
2019-04-28T10:30:47.289Z,10108.00
2019-04-28T10:31:47.284Z,10104.00
2019-04-28T10:33:00.558Z,10096.00
2019-04-28T10:33:47.259Z,10084.00
2019-04-28T10:34:54.794Z,10088.00
2019-04-28T10:35:48.239Z,10076.00
2019-04-28T10:36:47.230Z,10068.00
2019-04-28T10:37:47.214Z,10068.00
2019-04-28T10:38:47.206Z,10052.00
2019-04-28T10:39:47.194Z,10036.00
2019-04-28T10:40:47.216Z,10024.00
2019-04-28T10:41:47.167Z,10008.00
2019-04-28T10:42:47.157Z,10008.00
2019-04-28T10:43:47.140Z,10000.00
2019-04-28T10:44:47.133Z,9992.00
2019-04-28T10:45:47.127Z,9980.00
2019-04-28T10:46:47.121Z,9968.00
2019-04-28T10:47:47.105Z,9960.00
2019-04-28T10:48:47.101Z,9948.00
2019-04-28T10:49:47.082Z,9936.00
2019-04-28T10:50:47.078Z,9928.00
2019-04-28T10:51:58.831Z,9928.00
2019-04-28T10:52:48.058Z,9920.00
2019-04-28T10:53:47.034Z,9908.00
2019-04-28T10:54:47.041Z,9904.00
2019-04-28T10:55:47.601Z,9896.00
2019-04-28T10:56:47.008Z,9892.00
2019-04-28T10:57:47.028Z,9864.00
2019-04-28T10:58:46.976Z,9844.00
2019-04-28T10:59:46.984Z,9832.00
2019-04-28T11:00:46.970Z,9820.00
2019-04-28T11:01:46.947Z,9796.00
2019-04-28T11:02:46.941Z,9784.00
2019-04-28T11:03:59.649Z,9772.00
2019-04-28T11:04:46.916Z,9752.00
2019-04-28T11:05:46.909Z,9736.00
2019-04-28T11:06:46.892Z,9724.00
2019-04-28T11:07:46.878Z,9716.00
2019-04-28T11:08:46.909Z,9704.00
2019-04-28T11:09:46.861Z,9692.00
2019-04-28T11:10:46.857Z,9676.00
2019-04-28T11:11:46.836Z,9652.00
2019-04-28T11:12:46.827Z,9648.00
2019-04-28T11:13:46.819Z,9644.00
2019-04-28T11:14:46.845Z,9636.00
2019-04-28T11:15:46.797Z,9616.00
2019-04-28T11:16:46.783Z,9608.00
2019-04-28T11:17:46.772Z,9580.00
2019-04-28T11:18:46.763Z,9580.00
2019-04-28T11:19:46.765Z,9568.00
2019-04-28T11:20:46.785Z,9552.00
2019-04-28T11:21:46.722Z,9536.00
2019-04-28T11:22:46.718Z,9524.00
2019-04-28T11:23:46.705Z,9512.00
2019-04-28T11:24:46.689Z,9524.00
2019-04-28T11:25:46.687Z,9492.00
2019-04-28T11:26:46.705Z,9472.00
2019-04-28T11:27:46.661Z,9456.00
2019-04-28T11:28:46.656Z,9440.00
2019-04-28T11:29:46.635Z,9432.00
2019-04-28T11:30:46.654Z,9424.00
2019-04-28T11:31:46.618Z,9396.00
2019-04-28T11:32:46.648Z,9380.00
2019-04-28T11:33:46.601Z,9368.00
2019-04-28T11:35:00.015Z,9356.00
2019-04-28T11:35:46.567Z,9348.00
2019-04-28T11:36:46.562Z,9328.00
2019-04-28T11:37:46.550Z,9312.00
2019-04-28T11:38:46.554Z,9296.00
2019-04-28T11:39:46.585Z,9272.00
2019-04-28T11:40:46.522Z,9256.00
2019-04-28T11:41:46.514Z,9236.00
2019-04-28T11:42:46.492Z,9212.00
2019-04-28T11:43:46.526Z,9196.00
2019-04-28T11:44:46.487Z,9180.00
2019-04-28T11:45:46.472Z,9164.00
2019-04-28T11:46:46.446Z,9144.00
2019-04-28T11:47:46.438Z,9124.00
2019-04-28T11:48:46.435Z,9108.00
2019-04-28T11:49:46.458Z,9088.00
2019-04-28T11:50:46.405Z,9064.00
2019-04-28T11:51:46.404Z,9052.00
2019-04-28T11:52:46.385Z,9040.00
2019-04-28T11:53:46.371Z,9024.00
2019-04-28T11:54:46.362Z,9008.00
2019-04-28T11:55:46.406Z,8996.00
2019-04-28T11:56:46.343Z,8972.00
2019-04-28T11:57:46.339Z,8948.00
2019-04-28T11:58:46.325Z,8928.00
2019-04-28T11:59:46.314Z,8916.00